Aeroporto de Confins, Brazil
Current Conditions -  °F | °C
As of 9:00 PM on Thursday 18 Dec 2014 (Local Time) from SBLS Reporting Station
Few Clouds Few Clouds  
Wind Chill: 77°   Ceiling: Unl
Heat Index: 79°   Visibility: 6mi
Dew Point: 61°   Wind: 8mph
Humidity: 57%   Direction: 130°SE
Pressure: 29.91"   Gusts: NA
Location:  19.63°S, 43.98°W
Report Text: SBLS 182300Z 13007KT 9999 FEW035 25/16 Q1013
Loading
Personal Weather Stations






























Interactive Weather Map New forecast layout! Learn more

10-Day Weather Forecast

Advertisements
Track Severe Weather on mobile